Time;durP1;ratioP1;P1;durP2;ratioP2;P2;SDS_P1;SDS_P2;PMS_P1;PMS_P2;Temp;Humidity;BMP_temperature;BMP_pressure;BME280_temperature;BME280_humidity;BME280_pressure;Samples;Min_cycle;Max_cycle;Signal;HPM_P1;HPM_P2
2021/12/12 00:01:28;;;;;;;17.15;9.10;;;1.30;98.00;;;;;;5013032;28;20022;-76
2021/12/12 00:04:04;;;;;;;24.13;14.00;;;1.30;98.00;;;;;;5001096;28;20054;-76
2021/12/12 00:06:33;;;;;;;19.77;10.88;;;1.30;98.00;;;;;;5019302;28;20452;-75
2021/12/12 00:09:05;;;;;;;15.48;9.32;;;1.30;98.00;;;;;;5017142;28;20330;-75
2021/12/12 00:11:33;;;;;;;15.90;8.73;;;1.30;98.00;;;;;;5024433;28;20028;-75
2021/12/12 00:14:04;;;;;;;11.65;7.03;;;1.30;98.00;;;;;;5020093;28;20025;-76
2021/12/12 00:16:30;;;;;;;20.58;11.23;;;1.40;98.00;;;;;;5012870;28;20030;-75
2021/12/12 00:18:57;;;;;;;20.40;11.88;;;1.40;98.00;;;;;;5016548;28;20342;-76
2021/12/12 00:21:26;;;;;;;18.55;10.15;;;1.40;98.00;;;;;;5009969;28;20033;-74
2021/12/12 00:23:53;;;;;;;13.02;7.95;;;1.40;98.00;;;;;;5016506;28;20080;-76
2021/12/12 00:26:19;;;;;;;16.83;9.45;;;1.40;98.00;;;;;;5018697;28;20037;-76
2021/12/12 00:28:45;;;;;;;25.23;11.95;;;1.40;98.00;;;;;;5018435;28;20038;-76
2021/12/12 00:31:15;;;;;;;16.75;10.55;;;1.50;98.00;;;;;;5018553;28;20028;-76
2021/12/12 00:33:47;;;;;;;18.52;10.68;;;1.50;98.00;;;;;;5011876;28;20034;-76
2021/12/12 00:36:16;;;;;;;9.27;6.30;;;1.50;98.00;;;;;;5018817;28;20088;-76
2021/12/12 00:38:44;;;;;;;13.60;7.22;;;1.50;98.00;;;;;;5016458;28;20026;-74
2021/12/12 00:41:11;;;;;;;14.23;8.18;;;1.50;98.00;;;;;;5018235;28;20092;-75
2021/12/12 00:43:48;;;;;;;13.40;7.90;;;1.50;98.00;;;;;;5018890;28;20061;-75
2021/12/12 00:46:15;;;;;;;11.65;6.35;;;1.50;98.00;;;;;;5028028;28;20026;-75
2021/12/12 00:48:46;;;;;;;10.95;5.78;;;1.50;98.00;;;;;;5017925;28;20030;-76
2021/12/12 00:51:22;;;;;;;10.90;5.70;;;1.50;98.00;;;;;;5017827;28;20029;-76
2021/12/12 00:53:48;;;;;;;12.45;5.82;;;1.50;98.00;;;;;;5015911;28;20018;-76
2021/12/12 00:56:15;;;;;;;10.05;5.78;;;1.50;98.00;;;;;;5017634;28;20120;-76
2021/12/12 00:58:41;;;;;;;10.43;5.47;;;1.40;98.00;;;;;;5018716;28;20030;-77
2021/12/12 01:01:22;;;;;;;10.38;5.63;;;1.50;98.00;;;;;;5021829;28;20116;-76
2021/12/12 01:03:55;;;;;;;10.73;6.07;;;1.50;98.00;;;;;;5008390;28;20026;-76
2021/12/12 01:06:22;;;;;;;8.65;5.43;;;1.50;98.00;;;;;;5015288;28;20030;-76
2021/12/12 01:08:49;;;;;;;11.43;6.45;;;1.50;98.00;;;;;;5016309;28;20037;-75
2021/12/12 01:11:29;;;;;;;12.50;6.22;;;1.50;98.00;;;;;;5018170;28;20133;-75
2021/12/12 01:13:55;;;;;;;9.68;5.50;;;1.50;98.00;;;;;;5023782;28;20053;-76
2021/12/12 01:16:41;;;;;;;11.10;5.93;;;1.50;98.00;;;;;;5027750;28;20030;-75
2021/12/12 01:19:12;;;;;;;13.48;6.50;;;1.50;98.00;;;;;;5023869;28;20034;-75
2021/12/12 01:21:43;;;;;;;8.05;5.30;;;1.50;98.00;;;;;;5017762;28;20026;-75
2021/12/12 01:24:18;;;;;;;11.82;5.43;;;1.40;98.00;;;;;;5016198;28;20160;-75
2021/12/12 01:26:46;;;;;;;11.82;6.13;;;1.40;98.00;;;;;;4999078;28;20109;-75
2021/12/12 01:29:12;;;;;;;13.02;6.32;;;1.40;98.00;;;;;;5015603;28;20465;-75
2021/12/12 01:31:46;;;;;;;13.68;6.22;;;1.40;98.00;;;;;;5016758;28;20030;-76
2021/12/12 01:34:15;;;;;;;14.73;7.30;;;1.40;98.00;;;;;;5014957;28;20030;-76
2021/12/12 01:36:53;;;;;;;11.68;6.47;;;1.40;98.00;;;;;;5017191;28;20109;-76
2021/12/12 01:39:23;;;;;;;9.02;5.20;;;1.40;98.00;;;;;;5017241;28;20477;-76
2021/12/12 01:42:01;;;;;;;14.93;7.78;;;1.40;98.00;;;;;;5017739;28;20033;-75
2021/12/12 01:44:37;;;;;;;11.15;6.10;;;1.40;98.00;;;;;;5032653;28;20030;-75
2021/12/12 01:47:23;;;;;;;11.63;6.60;;;1.40;98.00;;;;;;5015712;28;20100;-75
2021/12/12 01:49:52;;;;;;;12.88;7.07;;;1.40;98.00;;;;;;5009553;28;20126;-76
2021/12/12 01:52:22;;;;;;;10.88;6.18;;;1.40;98.00;;;;;;5015008;28;20465;-75
2021/12/12 01:54:52;;;;;;;13.27;7.00;;;1.30;98.00;;;;;;5016891;28;20438;-76
2021/12/12 01:57:33;;;;;;;16.50;7.60;;;1.30;98.00;;;;;;5014670;28;20018;-76
2021/12/12 02:00:04;;;;;;;13.82;7.25;;;1.30;98.00;;;;;;5006404;28;20577;-76
2021/12/12 02:02:33;;;;;;;12.88;7.50;;;1.30;98.00;;;;;;5015215;28;20030;-75
2021/12/12 02:05:05;;;;;;;12.57;6.85;;;1.30;98.00;;;;;;5013955;28;20037;-75
2021/12/12 02:07:35;;;;;;;10.52;6.72;;;1.30;98.00;;;;;;5015765;28;20113;-76
2021/12/12 02:10:07;;;;;;;10.27;5.22;;;1.30;98.00;;;;;;5026821;28;20026;-76
2021/12/12 02:12:33;;;;;;;7.40;4.85;;;1.30;98.00;;;;;;5012557;28;20040;-75
2021/12/12 02:14:59;;;;;;;6.82;4.30;;;1.30;98.00;;;;;;5016788;28;20100;-76
2021/12/12 02:17:36;;;;;;;7.95;5.03;;;1.40;98.00;;;;;;5024484;28;20029;-76
2021/12/12 02:20:20;;;;;;;8.27;4.80;;;1.40;98.00;;;;;;5033156;28;20029;-77
2021/12/12 02:36:29;;;;;;;7.32;4.15;;;1.40;98.00;;;;;;5016841;28;20037;-76
2021/12/12 02:38:55;;;;;;;12.10;4.80;;;1.40;98.00;;;;;;5015153;28;20080;-75
2021/12/12 02:41:23;;;;;;;10.50;5.22;;;1.40;98.00;;;;;;5015058;28;20030;-75
2021/12/12 02:43:54;;;;;;;8.82;5.25;;;1.40;98.00;;;;;;5016064;28;20030;-76
2021/12/12 02:46:27;;;;;;;12.82;6.05;;;1.40;98.00;;;;;;5015529;28;20509;-76
2021/12/12 02:48:58;;;;;;;12.15;6.30;;;1.40;98.00;;;;;;5013821;28;20036;-75
2021/12/12 02:51:25;;;;;;;9.50;5.93;;;1.40;98.00;;;;;;5014839;28;20029;-77
2021/12/12 02:53:55;;;;;;;12.02;6.70;;;1.40;98.00;;;;;;5014500;28;20109;-75
2021/12/12 02:56:29;;;;;;;11.63;6.47;;;1.30;98.00;;;;;;5015273;28;20022;-75
2021/12/12 02:58:55;;;;;;;9.80;6.00;;;1.30;98.00;;;;;;5014721;28;20494;-77
2021/12/12 03:01:31;;;;;;;13.77;6.00;;;1.30;98.00;;;;;;5015019;28;20083;-76
2021/12/12 03:03:57;;;;;;;8.35;5.15;;;1.30;98.00;;;;;;5015264;28;20045;-76
2021/12/12 03:06:26;;;;;;;9.25;5.72;;;1.30;98.00;;;;;;5012445;28;20032;-77
2021/12/12 03:09:00;;;;;;;9.02;5.80;;;1.30;98.00;;;;;;5007579;28;20052;-76
2021/12/12 03:11:27;;;;;;;10.85;5.45;;;1.30;98.00;;;;;;5013911;28;20083;-75
2021/12/12 03:13:54;;;;;;;9.30;5.50;;;1.20;98.00;;;;;;5016466;28;20060;-76
2021/12/12 03:16:20;;;;;;;7.85;5.28;;;1.20;98.00;;;;;;5014890;28;20029;-76
2021/12/12 03:18:46;;;;;;;8.90;5.07;;;1.20;98.00;;;;;;5025477;28;20036;-75
2021/12/12 03:21:32;;;;;;;7.72;5.22;;;1.20;98.00;;;;;;5014049;28;20026;-75
2021/12/12 03:24:13;;;;;;;10.88;5.45;;;1.10;98.00;;;;;;5012409;28;20423;-75
2021/12/12 03:26:42;;;;;;;7.93;5.15;;;1.10;98.00;;;;;;5015793;28;20036;-76
2021/12/12 03:29:08;;;;;;;7.03;4.82;;;1.20;98.00;;;;;;5014246;28;20042;-76
2021/12/12 03:31:40;;;;;;;7.32;4.60;;;1.20;98.00;;;;;;5015787;28;20033;-75
2021/12/12 03:34:23;;;;;;;7.35;4.10;;;1.20;98.00;;;;;;5010485;28;20100;-74
2021/12/12 03:36:50;;;;;;;5.93;3.73;;;1.10;98.00;;;;;;4996558;28;20117;-74
2021/12/12 03:39:23;;;;;;;7.90;4.45;;;1.20;98.00;;;;;;5012375;28;20081;-74
2021/12/12 03:41:52;;;;;;;6.45;4.45;;;1.30;98.00;;;;;;5006194;28;20030;-75
2021/12/12 03:44:21;;;;;;;6.43;4.00;;;1.20;98.00;;;;;;5014872;28;20038;-76
2021/12/12 03:46:50;;;;;;;6.35;3.78;;;1.10;98.00;;;;;;5031901;28;20080;-75
2021/12/12 03:49:16;;;;;;;6.53;4.25;;;1.10;98.00;;;;;;5024517;28;20496;-77
2021/12/12 03:51:44;;;;;;;6.95;4.30;;;0.90;98.00;;;;;;5015262;28;20022;-76
2021/12/12 03:54:10;;;;;;;6.78;4.32;;;0.80;98.00;;;;;;5014165;28;20064;-76
2021/12/12 03:56:38;;;;;;;7.45;3.85;;;0.70;98.00;;;;;;5015419;28;20492;-76
2021/12/12 03:59:04;;;;;;;6.55;4.18;;;0.70;98.00;;;;;;5012650;28;20045;-76
2021/12/12 04:01:39;;;;;;;6.15;3.53;;;0.80;98.00;;;;;;5015693;28;20031;-76
2021/12/12 04:04:18;;;;;;;10.25;4.00;;;0.80;98.00;;;;;;5014751;28;20033;-75
2021/12/12 04:06:44;;;;;;;14.55;7.13;;;0.70;98.00;;;;;;5013805;28;20029;-75
2021/12/12 04:09:11;;;;;;;113.47;39.55;;;0.70;98.00;;;;;;5012527;28;20088;-75
2021/12/12 04:11:44;;;;;;;35.22;15.02;;;0.60;98.00;;;;;;5015209;28;20033;-75
2021/12/12 04:14:10;;;;;;;145.30;51.40;;;0.60;98.00;;;;;;5012233;28;20308;-75
2021/12/12 04:16:40;;;;;;;250.10;92.47;;;0.50;98.00;;;;;;5011919;28;20018;-75
2021/12/12 04:19:07;;;;;;;13.90;7.63;;;0.40;98.00;;;;;;5015418;28;20537;-75
2021/12/12 04:21:35;;;;;;;7.75;4.72;;;0.30;98.00;;;;;;5016316;28;20054;-76
2021/12/12 04:24:01;;;;;;;5.55;3.60;;;0.30;98.00;;;;;;5012637;28;20026;-76
2021/12/12 04:26:32;;;;;;;7.47;4.18;;;0.30;98.00;;;;;;5014666;28;20022;-75
2021/12/12 04:29:03;;;;;;;6.25;3.95;;;0.30;98.00;;;;;;5012661;28;20049;-76
2021/12/12 04:31:33;;;;;;;22.98;13.20;;;0.10;98.00;;;;;;5008699;28;20034;-75
2021/12/12 04:33:59;;;;;;;14.93;8.75;;;0.00;98.00;;;;;;5013660;28;20049;-74
2021/12/12 04:36:33;;;;;;;8.25;4.97;;;-0.10;98.00;;;;;;5015329;28;20118;-75
2021/12/12 04:39:06;;;;;;;6.45;3.20;;;-0.20;98.00;;;;;;5012889;28;20034;-75
2021/12/12 04:41:32;;;;;;;5.93;3.72;;;-0.20;98.00;;;;;;5013557;28;20034;-75
2021/12/12 04:43:57;;;;;;;7.50;3.67;;;-0.30;98.00;;;;;;5003269;28;20042;-75
2021/12/12 04:46:36;;;;;;;6.78;4.22;;;-0.40;98.00;;;;;;5014239;28;20022;-75
2021/12/12 04:52:00;;;;;;;7.60;3.80;;;-0.40;98.00;;;;;;5018050;28;20033;-75
2021/12/12 04:54:53;;;;;;;12.07;5.53;;;-0.30;98.00;;;;;;5016824;28;20030;-75
2021/12/12 04:57:26;;;;;;;6.25;4.00;;;-0.30;98.00;;;;;;5012841;28;20489;-75
2021/12/12 05:00:05;;;;;;;6.68;4.25;;;-0.40;98.00;;;;;;5022048;28;20026;-76
2021/12/12 05:02:58;;;;;;;6.60;4.05;;;-0.60;98.00;;;;;;5014495;28;20030;-74
2021/12/12 05:05:36;;;;;;;5.68;3.80;;;-0.60;98.00;;;;;;5008351;28;20026;-75
2021/12/12 05:08:13;;;;;;;7.22;3.90;;;-0.60;98.00;;;;;;5015670;28;20036;-75
2021/12/12 05:10:46;;;;;;;5.60;3.50;;;-0.60;98.00;;;;;;5016920;28;20030;-75
2021/12/12 05:13:25;;;;;;;5.60;3.73;;;-0.60;98.00;;;;;;5016422;28;20083;-76
2021/12/12 05:16:00;;;;;;;7.32;4.28;;;-0.60;98.00;;;;;;5013361;28;20322;-75
2021/12/12 05:18:32;;;;;;;6.35;3.80;;;-0.60;98.00;;;;;;5017545;28;20580;-75
2021/12/12 05:21:10;;;;;;;5.43;3.50;;;-0.60;98.00;;;;;;5018087;28;20092;-75
2021/12/12 05:23:40;;;;;;;8.60;4.18;;;-0.60;98.00;;;;;;5017653;28;20112;-75
2021/12/12 05:26:19;;;;;;;7.05;4.18;;;-0.70;98.00;;;;;;5018404;28;20034;-75
2021/12/12 05:29:12;;;;;;;6.70;3.90;;;-0.70;98.00;;;;;;5016868;28;20370;-76
2021/12/12 05:31:38;;;;;;;6.30;3.70;;;-0.70;98.00;;;;;;5009801;28;20022;-75
2021/12/12 05:34:05;;;;;;;8.07;5.13;;;-0.70;98.00;;;;;;5016599;28;20030;-76
2021/12/12 05:36:33;;;;;;;6.32;4.00;;;-0.80;98.00;;;;;;5007016;28;20105;-75
2021/12/12 05:39:00;;;;;;;6.20;3.60;;;-0.80;98.00;;;;;;5015640;28;20026;-75
2021/12/12 05:41:27;;;;;;;5.88;3.72;;;-0.90;98.00;;;;;;5017144;28;20033;-75
2021/12/12 05:43:56;;;;;;;6.63;3.85;;;-0.90;98.00;;;;;;5008503;28;20030;-74
2021/12/12 05:46:23;;;;;;;6.90;3.85;;;-1.00;98.00;;;;;;5017446;28;20033;-75
2021/12/12 05:48:50;;;;;;;7.95;3.90;;;-1.00;98.00;;;;;;5011047;28;20153;-75
2021/12/12 05:51:17;;;;;;;5.15;3.45;;;-1.00;98.00;;;;;;5017692;28;20022;-75
2021/12/12 05:53:43;;;;;;;9.65;4.97;;;-1.00;98.00;;;;;;5012273;28;20053;-75
2021/12/12 05:56:10;;;;;;;15.65;6.80;;;-1.10;98.00;;;;;;5015937;28;20374;-75
2021/12/12 05:58:36;;;;;;;8.40;4.60;;;-1.00;98.00;;;;;;5014613;28;20030;-76
2021/12/12 06:01:09;;;;;;;6.10;4.05;;;-1.00;98.00;;;;;;5014665;28;20323;-76
2021/12/12 06:03:39;;;;;;;7.53;3.85;;;-1.00;98.00;;;;;;5016068;28;20029;-74
2021/12/12 06:06:11;;;;;;;6.88;4.95;;;-1.00;98.00;;;;;;5017721;28;20026;-76
2021/12/12 06:08:40;;;;;;;5.65;3.72;;;-1.00;98.00;;;;;;5015641;28;20030;-76
2021/12/12 06:11:07;;;;;;;6.93;4.70;;;-1.00;98.00;;;;;;5016659;28;20033;-74
2021/12/12 06:13:36;;;;;;;7.07;4.53;;;-1.00;98.00;;;;;;5016741;28;20049;-75
2021/12/12 06:16:03;;;;;;;5.63;3.47;;;-1.00;98.00;;;;;;5016918;28;20018;-75
2021/12/12 06:18:31;;;;;;;7.53;4.68;;;-0.90;98.00;;;;;;5015882;28;20056;-76
2021/12/12 06:20:57;;;;;;;9.27;5.22;;;-0.90;98.00;;;;;;5015237;28;20128;-75
2021/12/12 06:23:24;;;;;;;8.43;5.07;;;-1.00;98.00;;;;;;5014843;28;20057;-75
2021/12/12 06:25:50;;;;;;;27.33;12.70;;;-1.00;98.00;;;;;;5019209;28;20540;-74
2021/12/12 06:28:24;;;;;;;11.00;6.70;;;-0.90;98.00;;;;;;5037165;28;20091;-74
2021/12/12 06:30:53;;;;;;;17.45;9.50;;;-0.90;98.00;;;;;;5008125;28;20453;-73
2021/12/12 06:33:19;;;;;;;12.27;7.13;;;-0.80;98.00;;;;;;5013588;28;20038;-74
2021/12/12 06:35:45;;;;;;;7.88;4.38;;;-0.90;98.00;;;;;;5016438;28;20291;-74
2021/12/12 06:38:12;;;;;;;5.85;3.50;;;-0.80;98.00;;;;;;5011189;28;20026;-75
2021/12/12 06:40:40;;;;;;;4.75;2.95;;;-0.80;98.00;;;;;;5006315;28;20056;-75
2021/12/12 06:43:08;;;;;;;6.38;3.40;;;-0.70;98.00;;;;;;5015712;28;20034;-75
2021/12/12 06:45:35;;;;;;;5.35;3.08;;;-0.70;98.00;;;;;;5012324;28;20042;-75
2021/12/12 06:48:05;;;;;;;4.85;2.80;;;-0.80;98.00;;;;;;5012060;28;20419;-76
2021/12/12 06:50:33;;;;;;;6.68;2.80;;;-0.80;98.00;;;;;;5009684;28;20466;-74
2021/12/12 06:53:00;;;;;;;4.47;2.67;;;-0.70;98.00;;;;;;5022828;28;20315;-75
2021/12/12 06:55:27;;;;;;;4.78;2.80;;;-0.60;98.00;;;;;;5017101;28;20026;-74
2021/12/12 06:57:52;;;;;;;5.28;3.08;;;-0.50;98.00;;;;;;5015049;28;20076;-74
2021/12/12 07:00:22;;;;;;;5.90;3.55;;;-0.50;98.00;;;;;;5021047;28;20029;-75
2021/12/12 07:02:52;;;;;;;5.18;2.72;;;-0.50;98.00;;;;;;5011259;28;20026;-75
2021/12/12 07:05:24;;;;;;;5.93;3.65;;;-0.50;98.00;;;;;;5015426;28;20025;-74
2021/12/12 07:07:51;;;;;;;5.57;3.25;;;-0.50;98.00;;;;;;5019426;28;20322;-74
2021/12/12 07:10:19;;;;;;;4.80;2.88;;;-0.60;98.00;;;;;;5023584;28;20076;-75
2021/12/12 07:12:46;;;;;;;4.70;3.08;;;-0.70;98.00;;;;;;5015573;28;20419;-74
2021/12/12 07:15:15;;;;;;;4.97;3.00;;;-0.60;98.00;;;;;;5021461;28;20450;-75
2021/12/12 07:17:42;;;;;;;5.07;3.00;;;-0.60;98.00;;;;;;5015143;28;20068;-75
2021/12/12 07:20:10;;;;;;;5.47;3.28;;;-0.60;98.00;;;;;;5015214;28;20037;-75
2021/12/12 07:22:36;;;;;;;4.68;3.00;;;-0.50;98.00;;;;;;5015263;28;20026;-74
2021/12/12 07:25:05;;;;;;;4.88;2.80;;;-0.50;98.00;;;;;;5011967;28;20080;-75
2021/12/12 07:27:31;;;;;;;4.32;2.67;;;-0.50;98.00;;;;;;5015201;28;20045;-75
2021/12/12 07:29:58;;;;;;;5.10;3.00;;;-0.50;98.00;;;;;;5007965;28;20041;-74
2021/12/12 07:32:25;;;;;;;4.88;2.85;;;-0.50;98.00;;;;;;5014447;28;20033;-75
2021/12/12 07:34:51;;;;;;;3.92;2.42;;;-0.40;98.00;;;;;;5012524;28;20022;-74
2021/12/12 07:37:17;;;;;;;4.10;2.50;;;-0.40;98.00;;;;;;5013569;28;20025;-75
2021/12/12 07:39:44;;;;;;;4.55;2.90;;;-0.40;98.00;;;;;;5012838;28;20029;-74
2021/12/12 07:42:11;;;;;;;5.20;3.08;;;-0.30;98.00;;;;;;5036785;28;20018;-74
2021/12/12 07:44:40;;;;;;;5.85;3.50;;;-0.30;98.00;;;;;;5012350;28;20053;-75
2021/12/12 07:47:08;;;;;;;10.73;5.28;;;-0.30;98.00;;;;;;5015140;28;20030;-74
2021/12/12 07:49:41;;;;;;;8.45;4.00;;;-0.30;98.00;;;;;;5013825;28;20032;-74
2021/12/12 07:52:14;;;;;;;19.63;9.40;;;-0.30;98.00;;;;;;5010801;28;20108;-74
2021/12/12 07:54:41;;;;;;;6.50;3.60;;;-0.20;98.00;;;;;;5014128;28;20026;-75
2021/12/12 07:57:07;;;;;;;8.05;4.65;;;-0.10;98.00;;;;;;5015887;28;20034;-73
2021/12/12 07:59:36;;;;;;;8.90;4.80;;;-0.10;98.00;;;;;;5015626;28;20033;-74
2021/12/12 08:02:04;;;;;;;9.05;4.90;;;-0.10;98.00;;;;;;5007359;28;20041;-74
2021/12/12 08:04:31;;;;;;;10.38;5.20;;;0.00;98.00;;;;;;5003189;28;20022;-74
2021/12/12 08:06:58;;;;;;;7.53;4.03;;;0.00;98.00;;;;;;5010553;28;20084;-74
2021/12/12 08:09:24;;;;;;;5.72;3.22;;;0.10;97.80;;;;;;5009472;28;20022;-74
2021/12/12 08:11:52;;;;;;;5.85;3.03;;;0.20;97.20;;;;;;5009934;28;20025;-75
2021/12/12 08:14:23;;;;;;;7.88;4.35;;;0.30;96.60;;;;;;5002381;28;20106;-75
2021/12/12 08:16:51;;;;;;;4.00;2.50;;;0.40;96.60;;;;;;5012454;28;20014;-74
2021/12/12 08:19:23;;;;;;;5.28;3.50;;;0.50;96.00;;;;;;5006797;28;20124;-75
2021/12/12 08:21:49;;;;;;;5.00;3.05;;;0.60;95.60;;;;;;5008984;28;20312;-75
2021/12/12 08:24:16;;;;;;;5.68;2.78;;;0.70;95.20;;;;;;5012493;28;20438;-75
2021/12/12 08:26:44;;;;;;;9.95;3.63;;;0.90;95.20;;;;;;5017818;28;20026;-75
2021/12/12 08:29:11;;;;;;;6.15;3.17;;;1.10;94.50;;;;;;5009273;28;20045;-75
2021/12/12 08:31:38;;;;;;;5.80;2.70;;;1.60;94.10;;;;;;5013209;28;20054;-76
2021/12/12 08:34:07;;;;;;;4.50;2.20;;;2.60;91.80;;;;;;5009145;28;20032;-75
2021/12/12 08:36:35;;;;;;;3.90;2.28;;;3.50;88.40;;;;;;5008427;28;20049;-75
2021/12/12 08:39:03;;;;;;;3.85;2.10;;;3.80;86.40;;;;;;5017867;28;20029;-74
2021/12/12 08:41:29;;;;;;;3.85;2.10;;;4.60;84.90;;;;;;5014734;28;20645;-75
2021/12/12 08:43:55;;;;;;;10.95;5.47;;;5.50;82.30;;;;;;5016185;28;20030;-74
2021/12/12 08:46:23;;;;;;;74.93;37.45;;;6.00;79.60;;;;;;5010554;28;20036;-74
2021/12/12 08:48:50;;;;;;;320.33;153.13;;;6.00;79.90;;;;;;5007339;28;20034;-75
2021/12/12 08:51:22;;;;;;;37.60;21.80;;;5.70;79.20;;;;;;4997923;28;20014;-75
2021/12/12 08:53:53;;;;;;;5.97;3.88;;;5.40;79.30;;;;;;5011769;28;20292;-75
2021/12/12 08:56:31;;;;;;;2.97;1.52;;;5.10;80.50;;;;;;5017107;28;20091;-76
2021/12/12 08:58:59;;;;;;;8.30;3.08;;;4.70;81.20;;;;;;5014972;28;20034;-75
2021/12/12 09:01:25;;;;;;;5.65;2.60;;;4.40;83.50;;;;;;5012434;28;20430;-75
2021/12/12 09:03:58;;;;;;;5.35;3.20;;;4.00;86.50;;;;;;5007911;28;20355;-75
2021/12/12 09:06:30;;;;;;;3.70;2.03;;;3.60;85.90;;;;;;5002280;28;20023;-75
2021/12/12 09:09:00;;;;;;;3.63;1.90;;;3.50;85.10;;;;;;5009348;28;20187;-75
2021/12/12 09:11:33;;;;;;;3.50;1.90;;;3.50;86.50;;;;;;5014200;28;20403;-76
2021/12/12 09:14:28;;;;;;;3.22;1.90;;;3.50;87.00;;;;;;5015149;28;20018;-75
2021/12/12 09:17:09;;;;;;;3.30;1.58;;;3.60;86.10;;;;;;5013392;28;20030;-75
2021/12/12 09:19:45;;;;;;;4.97;2.80;;;3.60;85.40;;;;;;5012641;28;20415;-74
2021/12/12 09:22:19;;;;;;;4.25;2.70;;;3.60;83.70;;;;;;5005160;28;20033;-75
2021/12/12 09:25:03;;;;;;;2.88;1.52;;;3.60;84.70;;;;;;5007391;28;20038;-74
2021/12/12 09:27:44;;;;;;;3.67;1.88;;;3.60;84.20;;;;;;5015314;28;20501;-74
2021/12/12 09:30:19;;;;;;;6.28;3.90;;;3.70;84.70;;;;;;5012462;28;20030;-74
2021/12/12 09:33:04;;;;;;;6.18;2.50;;;3.80;84.50;;;;;;5031196;28;20018;-75
2021/12/12 09:35:37;;;;;;;5.38;2.10;;;4.00;83.90;;;;;;5013275;28;20104;-77
2021/12/12 09:38:11;;;;;;;4.63;2.50;;;4.30;81.10;;;;;;5014276;28;20022;-75
2021/12/12 09:41:14;;;;;;;2.65;1.35;;;4.60;82.90;;;;;;5015301;28;20041;-76
2021/12/12 09:43:58;;;;;;;3.85;1.92;;;5.00;79.70;;;;;;5014346;28;20036;-77
2021/12/12 09:46:55;;;;;;;4.53;2.20;;;5.30;81.00;;;;;;5015715;28;20050;-76
2021/12/12 09:53:01;;;;;;;4.18;1.95;;;5.50;80.00;;;;;;5005587;28;20125;-75
2021/12/12 09:55:50;;;;;;;6.00;3.25;;;5.80;80.20;;;;;;5016180;28;20363;-76
2021/12/12 09:58:32;;;;;;;5.45;3.17;;;5.50;80.30;;;;;;5004863;28;20136;-76
2021/12/12 10:01:07;;;;;;;7.53;4.25;;;5.30;81.20;;;;;;5015321;28;20062;-75
2021/12/12 10:03:44;;;;;;;10.63;5.43;;;5.10;81.80;;;;;;5028834;28;20026;-75
2021/12/12 10:06:43;;;;;;;9.10;5.05;;;5.00;82.40;;;;;;5015436;28;20494;-75
2021/12/12 10:09:14;;;;;;;10.43;5.82;;;4.90;83.70;;;;;;5012215;28;20037;-75
2021/12/12 10:12:18;;;;;;;10.40;6.45;;;4.60;85.60;;;;;;5014499;28;20021;-76
2021/12/12 10:14:55;;;;;;;11.50;7.18;;;4.60;87.00;;;;;;4972666;28;20026;-75
2021/12/12 10:17:43;;;;;;;9.65;6.40;;;4.60;87.60;;;;;;4972936;28;20034;-74
2021/12/12 10:20:30;;;;;;;13.50;8.52;;;4.70;87.00;;;;;;5001334;28;20148;-76
2021/12/12 10:23:15;;;;;;;18.88;11.05;;;5.10;86.40;;;;;;5029140;28;20296;-75
2021/12/12 10:25:46;;;;;;;15.07;9.32;;;5.10;86.40;;;;;;5013903;28;20076;-75
2021/12/12 10:28:32;;;;;;;15.30;9.18;;;5.10;86.40;;;;;;5013993;28;20038;-75
2021/12/12 10:31:07;;;;;;;12.98;8.35;;;5.40;85.80;;;;;;5011868;28;20102;-75
2021/12/12 10:33:46;;;;;;;32.92;16.35;;;5.60;85.70;;;;;;5030448;28;20030;-75
2021/12/12 10:36:37;;;;;;;27.17;15.35;;;5.60;85.00;;;;;;5014194;28;20029;-75
2021/12/12 10:39:19;;;;;;;12.75;8.38;;;5.50;85.60;;;;;;5010255;28;20046;-76
2021/12/12 10:41:54;;;;;;;14.70;10.07;;;5.50;85.40;;;;;;5013284;28;20430;-76
2021/12/12 10:44:28;;;;;;;12.10;8.40;;;5.40;85.90;;;;;;5013429;28;20034;-76
2021/12/12 10:47:16;;;;;;;10.88;5.72;;;5.30;86.40;;;;;;5014349;28;20030;-76
2021/12/12 10:50:10;;;;;;;10.52;6.72;;;5.20;84.90;;;;;;5012952;28;20034;-76
2021/12/12 10:52:49;;;;;;;10.45;6.43;;;5.00;84.70;;;;;;5010975;28;20025;-76
2021/12/12 10:55:24;;;;;;;10.35;7.40;;;4.90;86.30;;;;;;5011279;28;20037;-77
2021/12/12 10:58:34;;;;;;;11.38;6.95;;;5.20;86.20;;;;;;5014119;28;20482;-76
2021/12/12 11:01:07;;;;;;;12.27;6.68;;;5.30;85.30;;;;;;4968893;28;20038;-76
2021/12/12 11:03:52;;;;;;;12.05;7.35;;;5.30;85.30;;;;;;4974683;28;20074;-75
2021/12/12 11:06:40;;;;;;;11.95;7.57;;;5.20;86.30;;;;;;4998935;28;20510;-75
2021/12/12 11:09:34;;;;;;;11.00;7.55;;;5.30;86.60;;;;;;5010131;28;20050;-76
2021/12/12 11:12:18;;;;;;;15.43;10.27;;;5.60;85.60;;;;;;5030075;28;20025;-76
2021/12/12 11:15:04;;;;;;;11.68;7.22;;;5.60;85.20;;;;;;5018164;28;20049;-75
2021/12/12 11:17:36;;;;;;;12.00;8.30;;;5.60;85.60;;;;;;5019773;28;20037;-76
2021/12/12 11:20:13;;;;;;;9.13;5.50;;;5.80;85.30;;;;;;5013463;28;20389;-76
2021/12/12 11:22:45;;;;;;;8.05;3.83;;;6.00;82.50;;;;;;5010313;28;20030;-75
2021/12/12 11:25:22;;;;;;;14.98;8.85;;;6.10;80.00;;;;;;5009293;28;20060;-76
2021/12/12 11:27:54;;;;;;;16.67;10.45;;;6.20;82.00;;;;;;4974816;28;1156797;-75
2021/12/12 11:30:29;;;;;;;14.15;8.85;;;6.40;82.70;;;;;;5014852;28;20030;-75
2021/12/12 11:32:57;;;;;;;14.70;8.93;;;6.40;83.10;;;;;;5014037;28;20018;-76
2021/12/12 11:35:25;;;;;;;12.60;8.35;;;6.30;82.90;;;;;;5014601;28;20079;-76
2021/12/12 11:38:20;;;;;;;10.60;6.18;;;6.00;82.20;;;;;;5012435;28;20037;-74
2021/12/12 11:41:14;;;;;;;13.43;8.57;;;5.90;82.90;;;;;;5015268;28;20087;-75
2021/12/12 11:43:48;;;;;;;8.13;4.03;;;5.90;82.90;;;;;;5009579;28;20296;-76
2021/12/12 11:46:32;;;;;;;;;;;5.80;83.00;;;;;;5014777;28;20441;-76
2021/12/12 11:49:16;;;;;;;6.80;3.63;;;5.70;83.60;;;;;;5013357;28;20276;-76
2021/12/12 11:52:03;;;;;;;5.78;3.42;;;5.90;83.20;;;;;;5013245;28;20315;-75
2021/12/12 11:54:59;;;;;;;7.78;4.57;;;6.10;83.50;;;;;;5014658;28;20423;-75
2021/12/12 11:57:31;;;;;;;9.20;4.97;;;6.20;82.20;;;;;;5014704;28;20371;-76
2021/12/12 12:00:16;;;;;;;8.38;4.88;;;6.30;82.20;;;;;;5014505;28;20033;-75
2021/12/12 12:03:00;;;;;;;7.82;4.40;;;6.50;82.50;;;;;;5007673;28;20022;-76
2021/12/12 12:05:28;;;;;;;;;;;6.40;81.50;;;;;;5015803;28;20125;-76
2021/12/12 12:08:07;;;;;;;9.75;4.78;;;6.20;82.00;;;;;;5013630;28;19971;-76
2021/12/12 12:10:47;;;;;;;11.57;6.30;;;6.20;83.00;;;;;;5013973;28;20030;-75
2021/12/12 12:13:35;;;;;;;13.75;8.15;;;6.20;83.70;;;;;;5013421;28;20109;-75
2021/12/12 12:16:08;;;;;;;8.05;5.32;;;6.50;83.00;;;;;;5012885;28;20017;-74
2021/12/12 12:18:53;;;;;;;7.53;4.73;;;6.60;82.00;;;;;;5013283;28;20022;-75
2021/12/12 12:21:45;;;;;;;10.70;6.70;;;6.80;82.30;;;;;;5014920;28;20087;-75
2021/12/12 12:24:37;;;;;;;5.68;3.15;;;6.50;79.30;;;;;;5009559;28;20042;-77
2021/12/12 12:27:23;;;;;;;4.70;2.08;;;6.50;79.80;;;;;;5014859;28;20033;-75
2021/12/12 12:30:04;;;;;;;5.15;2.00;;;6.50;78.20;;;;;;5010595;28;20034;-74
2021/12/12 12:32:42;;;;;;;5.60;2.90;;;6.80;76.80;;;;;;5023694;28;20026;-75
2021/12/12 12:35:19;;;;;;;4.82;2.63;;;7.00;77.50;;;;;;5014843;28;20029;-75
2021/12/12 12:38:22;;;;;;;4.28;2.03;;;7.00;76.10;;;;;;5006341;28;20105;-75
2021/12/12 12:41:10;;;;;;;4.60;1.77;;;7.10;75.90;;;;;;5014783;28;20052;-74
2021/12/12 12:44:09;;;;;;;3.53;1.42;;;7.10;74.90;;;;;;5026182;28;20263;-74
2021/12/12 12:46:56;;;;;;;2.47;1.27;;;7.30;73.40;;;;;;5012902;28;20088;-75
2021/12/12 12:50:07;;;;;;;2.55;1.27;;;7.50;73.50;;;;;;5005073;28;20109;-76
2021/12/12 12:52:42;;;;;;;3.17;1.60;;;7.60;70.00;;;;;;5013380;28;20053;-74
2021/12/12 12:55:39;;;;;;;2.60;1.40;;;7.40;71.00;;;;;;5008963;28;20022;-76
2021/12/12 12:58:20;;;;;;;2.35;1.25;;;7.30;70.40;;;;;;5012907;28;20022;-75
2021/12/12 13:00:48;;;;;;;5.63;2.85;;;7.10;70.60;;;;;;5006776;28;20018;-75
2021/12/12 13:03:37;;;;;;;7.68;5.20;;;7.30;71.80;;;;;;5016156;28;20022;-76
2021/12/12 13:06:03;;;;;;;4.60;1.90;;;7.40;71.90;;;;;;5013866;28;20046;-76
2021/12/12 13:09:07;;;;;;;5.72;2.35;;;7.60;70.80;;;;;;5011165;28;20026;-76
2021/12/12 13:11:32;;;;;;;2.97;1.40;;;7.50;70.70;;;;;;5017694;28;20050;-77
2021/12/12 13:14:34;;;;;;;3.72;1.83;;;7.40;71.30;;;;;;5018460;28;20048;-75
2021/12/12 13:17:01;;;;;;;3.47;1.60;;;7.20;71.60;;;;;;5018091;28;20105;-76
2021/12/12 13:19:42;;;;;;;5.65;2.30;;;7.00;72.30;;;;;;5013424;28;20066;-76
2021/12/12 13:22:40;;;;;;;5.10;2.25;;;7.00;73.90;;;;;;5001869;28;20034;-76
2021/12/12 13:25:14;;;;;;;7.65;4.03;;;6.80;75.20;;;;;;5017970;28;20033;-75
2021/12/12 13:28:08;;;;;;;16.33;7.63;;;6.60;76.60;;;;;;5012349;28;20029;-76
2021/12/12 13:30:58;;;;;;;9.05;4.32;;;6.70;77.10;;;;;;5002387;28;20026;-76
2021/12/12 13:33:32;;;;;;;6.43;3.03;;;6.60;76.00;;;;;;5017716;28;20029;-75
2021/12/12 13:36:00;;;;;;;;;;;6.80;76.00;;;;;;5013449;28;20512;-77
2021/12/12 13:38:50;;;;;;;5.95;3.65;;;6.60;75.20;;;;;;4997228;28;20358;-76
2021/12/12 13:41:33;;;;;;;3.20;1.55;;;6.60;75.00;;;;;;5000020;28;20030;-76
2021/12/12 13:44:11;;;;;;;3.47;1.60;;;6.50;73.60;;;;;;4998032;28;20062;-76
2021/12/12 13:47:03;;;;;;;8.48;3.55;;;6.50;75.00;;;;;;5011634;28;20084;-76